Terminal Aerodrome Forecast
Issued by NWS Detroit/Pontiac, MI

Home | Current Version | Previous Version | Text Only | Print | Product List | Glossary On
Versions: 1 2 3 4 5 6 7 8 9 10 11 12 13 14 15 16 17 18 19 20 21 22 23 24 25 26 27 28 29
000
FTUS43 KDTX 061723
TAFDTW
TAF
KDTW 061723Z 0618/0724 18008KT P6SM SCT040 SCT250
     FM070000 17009KT P6SM SCT250
     FM070900 20010KT P6SM SCT060 BKN120
     FM071200 21010KT P6SM BKN060 OVC100
     FM071400 22010KT 6SM -SHRA BKN040 OVC080
     FM072000 32006KT P6SM BKN035 OVC080=

USA.gov is the U.S. government's official web portal to all federal, state and local government web resources and services.